Carnival Triumph — C6FN5 — position and weather

sailwx.info

Track history (hours):
 
Tides and Currents Weather Stations Pressure Air Temp Water Temp Dewpoint Dewpoint Depression Visibility Wind Speed Wind Dir Waves Ship Positions

Carnival Triumph

Operator: Carnival Cruise Lines

Last reported at 2017-Aug-16 22:47 UTC. Time now 2017-Aug-17 03:38 UTC.
Position N 20°36' W 086°55'.

Type: Passenger vessel. MMSI: 308045000.

Date/timePositionNaut miles runAvg speedWind from/ knotsBaromVisibWave heightAir tempDewpointWater temp
2017-Aug-16 22:47N 20°36' W 086°55'519.4
2017-Aug-16 22:30N 20°32' W 086°59'3 5.9
2017-Aug-16 21:56N 20°29' W 086°59'0 0.0
2017-Aug-16 21:29N 20°29' W 086°59'0 0.0
2017-Aug-16 20:56N 20°29' W 086°59'0 0.0
2017-Aug-16 20:29N 20°29' W 086°59'0 0.0
2017-Aug-16 19:59N 20°29' W 086°59'0 0.0
2017-Aug-16 19:30N 20°29' W 086°59'0 0.0
2017-Aug-16 19:00N 20°29' W 086°59'0 0.0
2017-Aug-16 18:30N 20°29' W 086°59'0 0.0
2017-Aug-16 17:57N 20°29' W 086°59'0 0.0
2017-Aug-16 17:30N 20°29' W 086°59'0 0.0
2017-Aug-16 16:58N 20°29' W 086°59'0 0.0
2017-Aug-16 16:28N 20°29' W 086°59'0 0.0
2017-Aug-16 15:58N 20°29' W 086°59'0 0.0
2017-Aug-16 15:28N 20°29' W 086°59'0 0.0
2017-Aug-16 14:58N 20°29' W 086°59'0 0.0
2017-Aug-16 14:25N 20°29' W 086°59'0 0.0
2017-Aug-16 13:58N 20°29' W 086°59'0 0.0
2017-Aug-16 13:28N 20°29' W 086°59'0 0.0
2017-Aug-16 12:58N 20°29' W 086°59'0 0.4
2017-Aug-16 12:30N 20°29' W 086°59'5 9.1
2017-Aug-16 12:00N 20°33' W 086°58'201 8.4
2017-Aug-15 12:00N 23°36' W 088°30'70 1.4 200 / 121012.1 5.4 29.027.730.0
2017-Aug-13 10:00N 24°12' W 087°24'21618.7 020 / 101011.1 5.4 28.026.730.0
2017-Aug-12 22:26N 20°38' W 086°55'819.0
2017-Aug-12 22:00N 20°31' W 086°59'2 4.5
2017-Aug-12 21:28N 20°29' W 086°59'0 0.0
2017-Aug-12 20:58N 20°29' W 086°59'0 0.0
2017-Aug-12 20:25N 20°29' W 086°59'0 0.0
2017-Aug-12 19:55N 20°29' W 086°59'0 0.0
2017-Aug-12 19:22N 20°29' W 086°59'0 0.0
2017-Aug-12 18:55N 20°29' W 086°59'0 0.0
2017-Aug-12 18:28N 20°29' W 086°59'0 0.0
2017-Aug-12 17:58N 20°29' W 086°59'0 0.0
2017-Aug-12 17:28N 20°29' W 086°59'0 0.0
2017-Aug-12 16:58N 20°29' W 086°59'0 0.0
2017-Aug-12 16:25N 20°29' W 086°59'0 0.0
2017-Aug-12 15:43N 20°29' W 086°59'0 0.0
2017-Aug-12 15:28N 20°29' W 086°59'0 0.0
2017-Aug-12 14:55N 20°29' W 086°59'0 0.0
2017-Aug-12 14:28N 20°29' W 086°59'0 0.0
2017-Aug-12 13:58N 20°29' W 086°59'0 0.0
2017-Aug-12 13:28N 20°29' W 086°59'0 0.0
2017-Aug-12 12:58N 20°29' W 086°59'0 0.0
2017-Aug-12 12:28N 20°29' W 086°59'0 0.0
2017-Aug-12 12:00N 20°29' W 086°59'1 1.8
2017-Aug-12 11:31N 20°29' W 086°59'5 9.9
2017-Aug-12 11:00N 20°34' W 086°58'41517.3
2017-Aug-11 11:00N 27°18' W 088°42'136 2.8 130 / 101015.110.8 29.027.730.0
2017-Aug-09 11:00N 25°06' W 089°18'2424.0 090 / 251010.110.8 29.026.330.0
2017-Aug-09 10:00N 24°42' W 089°18'279 7.9 100 / 301010.110.8 28.025.330.0
2017-Aug-07 22:52N 20°37' W 086°55'618.1
2017-Aug-07 22:31N 20°32' W 086°59'3 5.4
2017-Aug-07 21:57N 20°29' W 086°59'0 0.0
2017-Aug-07 21:30N 20°29' W 086°59'0 0.0
2017-Aug-07 21:00N 20°29' W 086°59'0 0.0
2017-Aug-07 20:30N 20°29' W 086°59'0 0.0
2017-Aug-07 20:00N 20°29' W 086°59'0 0.0
2017-Aug-07 19:27N 20°29' W 086°59'0 0.0
2017-Aug-07 19:00N 20°29' W 086°59'0 0.0
2017-Aug-07 18:30N 20°29' W 086°59'0 0.0
2017-Aug-07 18:00N 20°29' W 086°59'0 0.0
2017-Aug-07 17:27N 20°29' W 086°59'0 0.0
2017-Aug-07 17:00N 20°29' W 086°59'0 0.0
2017-Aug-07 16:30N 20°29' W 086°59'0 0.0
2017-Aug-07 16:00N 20°29' W 086°59'0 0.0
2017-Aug-07 15:30N 20°29' W 086°59'0 0.0
2017-Aug-07 14:57N 20°29' W 086°59'0 0.0
2017-Aug-07 14:30N 20°29' W 086°59'0 0.0
2017-Aug-07 14:00N 20°29' W 086°59'0 0.0
2017-Aug-07 13:27N 20°29' W 086°59'0 0.0
2017-Aug-07 13:00N 20°29' W 086°59'0 0.0
2017-Aug-07 12:31N 20°29' W 086°59'0 0.0
2017-Aug-07 12:01N 20°29' W 086°59'0 0.0
2017-Aug-07 11:28N 20°29' W 086°59'0 0.0
2017-Aug-07 11:00N 20°29' W 086°59'0 0.1
2017-Aug-07 10:30N 20°29' W 086°59'4 7.8
2017-Aug-07 10:00N 20°33' W 086°59'  
Track history (hours):
 
Tides and Currents Weather Stations Pressure Air Temp Water Temp Dewpoint Dewpoint Depression Visibility Wind Speed Wind Dir Waves Ship Positions

Carnival Triumph

Operator: Carnival Cruise Lines

Last reported at 2017-Aug-16 22:47 UTC. Time now 2017-Aug-17 03:38 UTC.
Position N 20°36' W 086°55'.

Type: Passenger vessel. MMSI: 308045000.

Date/timePositionNaut miles runAvg speedWind from/ knotsBaromVisibWave heightAir tempDewpointWater temp
2017-Aug-16 22:47N 20°36' W 086°55'519.4
2017-Aug-16 22:30N 20°32' W 086°59'3 5.9
2017-Aug-16 21:56N 20°29' W 086°59'0 0.0
2017-Aug-16 21:29N 20°29' W 086°59'0 0.0
2017-Aug-16 20:56N 20°29' W 086°59'0 0.0
2017-Aug-16 20:29N 20°29' W 086°59'0 0.0
2017-Aug-16 19:59N 20°29' W 086°59'0 0.0
2017-Aug-16 19:30N 20°29' W 086°59'0 0.0
2017-Aug-16 19:00N 20°29' W 086°59'0 0.0
2017-Aug-16 18:30N 20°29' W 086°59'0 0.0
2017-Aug-16 17:57N 20°29' W 086°59'0 0.0
2017-Aug-16 17:30N 20°29' W 086°59'0 0.0
2017-Aug-16 16:58N 20°29' W 086°59'0 0.0
2017-Aug-16 16:28N 20°29' W 086°59'0 0.0
2017-Aug-16 15:58N 20°29' W 086°59'0 0.0
2017-Aug-16 15:28N 20°29' W 086°59'0 0.0
2017-Aug-16 14:58N 20°29' W 086°59'0 0.0
2017-Aug-16 14:25N 20°29' W 086°59'0 0.0
2017-Aug-16 13:58N 20°29' W 086°59'0 0.0
2017-Aug-16 13:28N 20°29' W 086°59'0 0.0
2017-Aug-16 12:58N 20°29' W 086°59'0 0.4
2017-Aug-16 12:30N 20°29' W 086°59'5 9.1
2017-Aug-16 12:00N 20°33' W 086°58'201 8.4
2017-Aug-15 12:00N 23°36' W 088°30'70 1.4 200 / 121012.1 5.4 29.027.730.0
2017-Aug-13 10:00N 24°12' W 087°24'21618.7 020 / 101011.1 5.4 28.026.730.0
2017-Aug-12 22:26N 20°38' W 086°55'819.0
2017-Aug-12 22:00N 20°31' W 086°59'2 4.5
2017-Aug-12 21:28N 20°29' W 086°59'0 0.0
2017-Aug-12 20:58N 20°29' W 086°59'0 0.0
2017-Aug-12 20:25N 20°29' W 086°59'0 0.0
2017-Aug-12 19:55N 20°29' W 086°59'0 0.0
2017-Aug-12 19:22N 20°29' W 086°59'0 0.0
2017-Aug-12 18:55N 20°29' W 086°59'0 0.0
2017-Aug-12 18:28N 20°29' W 086°59'0 0.0
2017-Aug-12 17:58N 20°29' W 086°59'0 0.0
2017-Aug-12 17:28N 20°29' W 086°59'0 0.0
2017-Aug-12 16:58N 20°29' W 086°59'0 0.0
2017-Aug-12 16:25N 20°29' W 086°59'0 0.0
2017-Aug-12 15:43N 20°29' W 086°59'0 0.0
2017-Aug-12 15:28N 20°29' W 086°59'0 0.0
2017-Aug-12 14:55N 20°29' W 086°59'0 0.0
2017-Aug-12 14:28N 20°29' W 086°59'0 0.0
2017-Aug-12 13:58N 20°29' W 086°59'0 0.0
2017-Aug-12 13:28N 20°29' W 086°59'0 0.0
2017-Aug-12 12:58N 20°29' W 086°59'0 0.0
2017-Aug-12 12:28N 20°29' W 086°59'0 0.0
2017-Aug-12 12:00N 20°29' W 086°59'1 1.8
2017-Aug-12 11:31N 20°29' W 086°59'5 9.9
2017-Aug-12 11:00N 20°34' W 086°58'41517.3
2017-Aug-11 11:00N 27°18' W 088°42'136 2.8 130 / 101015.110.8 29.027.730.0
2017-Aug-09 11:00N 25°06' W 089°18'2424.0 090 / 251010.110.8 29.026.330.0
2017-Aug-09 10:00N 24°42' W 089°18'279 7.9 100 / 301010.110.8 28.025.330.0
2017-Aug-07 22:52N 20°37' W 086°55'618.1
2017-Aug-07 22:31N 20°32' W 086°59'3 5.4
2017-Aug-07 21:57N 20°29' W 086°59'0 0.0
2017-Aug-07 21:30N 20°29' W 086°59'0 0.0
2017-Aug-07 21:00N 20°29' W 086°59'0 0.0
2017-Aug-07 20:30N 20°29' W 086°59'0 0.0
2017-Aug-07 20:00N 20°29' W 086°59'0 0.0
2017-Aug-07 19:27N 20°29' W 086°59'0 0.0
2017-Aug-07 19:00N 20°29' W 086°59'0 0.0
2017-Aug-07 18:30N 20°29' W 086°59'0 0.0
2017-Aug-07 18:00N 20°29' W 086°59'0 0.0
2017-Aug-07 17:27N 20°29' W 086°59'0 0.0
2017-Aug-07 17:00N 20°29' W 086°59'0 0.0
2017-Aug-07 16:30N 20°29' W 086°59'0 0.0
2017-Aug-07 16:00N 20°29' W 086°59'0 0.0
2017-Aug-07 15:30N 20°29' W 086°59'0 0.0
2017-Aug-07 14:57N 20°29' W 086°59'0 0.0
2017-Aug-07 14:30N 20°29' W 086°59'0 0.0
2017-Aug-07 14:00N 20°29' W 086°59'0 0.0
2017-Aug-07 13:27N 20°29' W 086°59'0 0.0
2017-Aug-07 13:00N 20°29' W 086°59'0 0.0
2017-Aug-07 12:31N 20°29' W 086°59'0 0.0
2017-Aug-07 12:01N 20°29' W 086°59'0 0.0
2017-Aug-07 11:28N 20°29' W 086°59'0 0.0
2017-Aug-07 11:00N 20°29' W 086°59'0 0.1
2017-Aug-07 10:30N 20°29' W 086°59'4 7.8
2017-Aug-07 10:00N 20°33' W 086°59'  

Dump ship's entire track history